createdAt,value
2023-03-21T00:01:38.783Z,11.30
2023-03-21T00:04:06.383Z,11.40
2023-03-21T00:06:33.722Z,11.30
2023-03-21T00:09:01.073Z,11.30
2023-03-21T00:11:28.612Z,11.30
2023-03-21T00:14:02.721Z,11.20
2023-03-21T00:16:31.322Z,11.10
2023-03-21T00:19:03.532Z,11.20
2023-03-21T00:21:55.295Z,11.10
2023-03-21T00:24:19.856Z,11.10
2023-03-21T00:26:47.278Z,11.00
2023-03-21T00:29:14.712Z,11.00
2023-03-21T00:31:42.028Z,10.90
2023-03-21T00:36:38.105Z,10.90
2023-03-21T00:39:08.161Z,11.00
2023-03-21T00:41:42.629Z,11.00
2023-03-21T00:44:16.004Z,10.90
2023-03-21T00:46:57.076Z,10.90
2023-03-21T00:49:34.229Z,10.80
2023-03-21T00:52:17.107Z,10.80
2023-03-21T00:54:47.722Z,10.70
2023-03-21T00:57:15.106Z,10.70
2023-03-21T00:59:42.482Z,10.70
2023-03-21T01:02:15.213Z,10.70
2023-03-21T01:04:42.847Z,10.70
2023-03-21T01:07:10.717Z,10.60
2023-03-21T01:09:39.128Z,10.60
2023-03-21T01:12:06.545Z,10.60
2023-03-21T01:14:33.946Z,10.60
2023-03-21T01:17:01.907Z,10.60
2023-03-21T01:19:40.990Z,10.50
2023-03-21T01:22:16.506Z,10.50
2023-03-21T01:24:53.801Z,10.40
2023-03-21T01:27:23.322Z,10.40
2023-03-21T01:29:51.643Z,10.40
2023-03-21T01:32:19.135Z,10.30
2023-03-21T01:34:46.715Z,10.30
2023-03-21T01:37:14.773Z,10.30
2023-03-21T01:39:47.484Z,10.30
2023-03-21T01:42:15.691Z,10.30
2023-03-21T01:44:48.314Z,10.40
2023-03-21T01:47:16.220Z,10.40
2023-03-21T01:49:50.077Z,10.40
2023-03-21T01:52:40.047Z,10.50
2023-03-21T01:55:14.895Z,10.50
2023-03-21T01:58:05.269Z,10.50
2023-03-21T02:00:43.979Z,10.50
2023-03-21T02:03:35.992Z,10.50
2023-03-21T02:06:11.773Z,10.50
2023-03-21T02:08:42.714Z,10.50
2023-03-21T02:11:14.773Z,10.50
2023-03-21T02:13:44.033Z,10.50
2023-03-21T02:16:38.057Z,10.50
2023-03-21T02:19:25.967Z,10.60
2023-03-21T02:22:16.623Z,10.60
2023-03-21T02:25:01.495Z,10.60
2023-03-21T02:27:40.604Z,10.60
2023-03-21T02:30:13.024Z,10.60
2023-03-21T02:32:54.355Z,10.60
2023-03-21T02:35:23.468Z,10.60
2023-03-21T02:38:00.042Z,10.60
2023-03-21T02:40:34.971Z,10.60
2023-03-21T02:43:22.661Z,10.60
2023-03-21T02:46:00.857Z,10.60
2023-03-21T02:48:49.905Z,10.60
2023-03-21T02:51:23.115Z,10.60
2023-03-21T02:54:23.677Z,10.60
2023-03-21T02:56:49.344Z,10.60
2023-03-21T02:59:20.346Z,10.60
2023-03-21T03:01:47.933Z,10.50
2023-03-21T03:04:18.348Z,10.50
2023-03-21T03:07:04.905Z,10.40
2023-03-21T03:09:47.635Z,10.40
2023-03-21T03:12:18.074Z,10.40
2023-03-21T03:15:03.016Z,10.30
2023-03-21T03:17:51.324Z,10.30
2023-03-21T03:20:23.876Z,10.30
2023-03-21T03:22:59.430Z,10.30
2023-03-21T03:25:42.522Z,10.30
2023-03-21T03:28:17.946Z,10.40
2023-03-21T03:31:01.245Z,10.40
2023-03-21T03:33:41.951Z,10.40
2023-03-21T03:36:25.037Z,10.40
2023-03-21T03:39:01.995Z,10.50
2023-03-21T03:42:03.016Z,10.40
2023-03-21T03:44:30.192Z,10.50
2023-03-21T03:47:08.603Z,10.50
2023-03-21T03:49:46.921Z,10.50
2023-03-21T03:52:21.626Z,10.60
2023-03-21T03:54:55.822Z,10.60
2023-03-21T03:57:27.246Z,10.70
2023-03-21T03:59:56.392Z,10.70
2023-03-21T04:02:27.362Z,10.70
2023-03-21T04:04:58.015Z,10.70
2023-03-21T04:07:25.805Z,10.70
2023-03-21T04:09:55.729Z,10.70
2023-03-21T04:12:23.225Z,10.70
2023-03-21T04:15:11.362Z,10.70
2023-03-21T04:17:45.650Z,10.70
2023-03-21T04:20:20.941Z,10.70
2023-03-21T04:22:56.596Z,10.70
2023-03-21T04:25:33.090Z,10.70
2023-03-21T04:28:02.771Z,10.70
2023-03-21T04:30:51.944Z,10.70
2023-03-21T04:33:26.688Z,10.80
2023-03-21T04:35:59.273Z,10.70
2023-03-21T04:38:34.036Z,10.80
2023-03-21T04:41:04.668Z,10.80
2023-03-21T04:43:32.228Z,10.80
2023-03-21T04:45:59.891Z,10.80
2023-03-21T04:48:28.052Z,10.80
2023-03-21T04:50:56.616Z,10.80
2023-03-21T04:53:24.032Z,10.80
2023-03-21T04:55:55.250Z,10.90
2023-03-21T04:58:24.183Z,10.80
2023-03-21T05:00:53.264Z,10.70
2023-03-21T05:03:21.605Z,10.60
2023-03-21T05:05:49.478Z,10.50
2023-03-21T05:08:19.145Z,10.40
2023-03-21T05:10:46.461Z,10.30
2023-03-21T05:13:13.992Z,10.30
2023-03-21T05:15:41.417Z,10.30
2023-03-21T05:18:10.410Z,10.20
2023-03-21T05:20:43.026Z,10.30
2023-03-21T05:23:11.860Z,10.30
2023-03-21T05:25:40.621Z,10.30
2023-03-21T05:28:18.590Z,10.30
2023-03-21T05:30:47.440Z,10.20
2023-03-21T05:33:15.443Z,10.20
2023-03-21T05:35:43.112Z,10.10
2023-03-21T05:38:12.603Z,10.10
2023-03-21T05:40:51.036Z,10.00
2023-03-21T05:43:18.971Z,9.90
2023-03-21T05:45:48.544Z,9.90
2023-03-21T05:48:18.604Z,9.90
2023-03-21T05:50:47.611Z,10.00
2023-03-21T05:53:20.176Z,10.10
2023-03-21T05:55:48.673Z,10.10
2023-03-21T05:58:31.821Z,10.00
2023-03-21T06:00:59.959Z,10.00
2023-03-21T06:03:32.902Z,10.00
2023-03-21T06:06:03.702Z,10.10
2023-03-21T06:08:32.669Z,10.00
2023-03-21T06:11:01.238Z,10.10
2023-03-21T06:13:31.712Z,10.10
2023-03-21T06:15:59.883Z,10.10
2023-03-21T06:18:28.280Z,10.10
2023-03-21T06:21:03.594Z,10.00
2023-03-21T06:23:32.863Z,10.00
2023-03-21T06:26:00.419Z,9.90
2023-03-21T06:28:28.284Z,9.90
2023-03-21T06:30:55.717Z,9.90
2023-03-21T06:33:26.611Z,9.90
2023-03-21T06:35:55.410Z,9.90
2023-03-21T06:38:24.289Z,9.90
2023-03-21T06:40:52.548Z,9.90
2023-03-21T06:43:22.092Z,9.80
2023-03-21T06:45:50.922Z,9.90
2023-03-21T06:48:18.343Z,9.90
2023-03-21T06:50:51.354Z,9.90
2023-03-21T06:53:25.233Z,9.90
2023-03-21T06:56:14.604Z,9.90
2023-03-21T06:58:43.664Z,10.00
2023-03-21T07:01:19.640Z,10.00
2023-03-21T07:03:57.898Z,10.00
2023-03-21T07:06:27.620Z,10.10
2023-03-21T07:08:56.654Z,10.10
2023-03-21T07:11:25.428Z,10.20
2023-03-21T07:13:53.750Z,10.20
2023-03-21T07:16:21.948Z,10.30
2023-03-21T07:18:49.343Z,10.30
2023-03-21T07:21:17.324Z,10.30
2023-03-21T07:23:45.596Z,10.40
2023-03-21T07:26:13.195Z,10.40
2023-03-21T07:28:41.005Z,10.40
2023-03-21T07:31:09.442Z,10.50
2023-03-21T07:33:36.961Z,10.50
2023-03-21T07:36:04.673Z,10.60
2023-03-21T07:38:32.040Z,10.70
2023-03-21T07:41:00.968Z,10.80
2023-03-21T07:43:31.833Z,10.80
2023-03-21T07:46:00.210Z,10.90
2023-03-21T07:48:28.624Z,10.90
2023-03-21T07:50:56.552Z,10.90
2023-03-21T07:53:23.847Z,10.90
2023-03-21T07:55:54.063Z,11.00
2023-03-21T07:58:21.998Z,11.00
2023-03-21T08:00:49.588Z,11.00
2023-03-21T08:03:16.950Z,11.10
2023-03-21T08:05:45.201Z,11.10
2023-03-21T08:08:12.551Z,11.10
2023-03-21T08:10:40.093Z,11.20
2023-03-21T08:13:07.461Z,11.20
2023-03-21T08:15:34.893Z,11.30
2023-03-21T08:18:02.248Z,11.30
2023-03-21T08:20:29.722Z,11.30
2023-03-21T08:22:57.233Z,11.40
2023-03-21T08:25:24.670Z,11.40
2023-03-21T08:27:52.144Z,11.40
2023-03-21T08:30:22.151Z,11.50
2023-03-21T08:32:49.524Z,11.50
2023-03-21T08:35:18.937Z,11.50
2023-03-21T08:37:46.138Z,11.50
2023-03-21T08:40:17.913Z,11.50
2023-03-21T08:42:46.686Z,11.60
2023-03-21T08:45:15.595Z,11.70
2023-03-21T08:47:43.205Z,11.80
2023-03-21T08:50:14.430Z,11.80
2023-03-21T08:52:41.914Z,11.90
2023-03-21T08:55:10.034Z,11.90
2023-03-21T08:57:37.343Z,12.00
2023-03-21T09:00:12.768Z,12.10
2023-03-21T09:02:41.779Z,12.10
2023-03-21T09:05:12.226Z,12.10
2023-03-21T09:07:41.242Z,12.10
2023-03-21T09:10:20.957Z,12.10
2023-03-21T09:12:52.432Z,12.10
2023-03-21T09:15:22.179Z,12.20
2023-03-21T09:17:53.353Z,12.20
2023-03-21T09:20:26.527Z,12.20
2023-03-21T09:22:54.348Z,12.30
2023-03-21T09:25:21.733Z,12.30
2023-03-21T09:27:49.495Z,12.30
2023-03-21T09:30:20.186Z,12.40
2023-03-21T09:32:49.164Z,12.40
2023-03-21T09:35:19.163Z,12.40
2023-03-21T09:37:48.421Z,12.40
2023-03-21T09:40:20.174Z,12.50
2023-03-21T09:43:00.030Z,12.50
2023-03-21T09:45:38.695Z,12.50
2023-03-21T09:48:15.367Z,12.60
2023-03-21T09:50:43.411Z,12.70
2023-03-21T09:53:21.105Z,12.70
2023-03-21T09:55:48.556Z,12.90
2023-03-21T09:58:26.292Z,13.00
2023-03-21T10:01:02.028Z,13.10
2023-03-21T10:03:35.132Z,13.20
2023-03-21T10:06:11.472Z,13.40
2023-03-21T10:08:41.918Z,13.70
2023-03-21T10:11:18.407Z,13.90
2023-03-21T10:13:51.159Z,14.00
2023-03-21T10:16:25.885Z,14.10
2023-03-21T10:18:55.723Z,14.10
2023-03-21T10:21:56.609Z,14.10
2023-03-21T10:24:17.664Z,14.20
2023-03-21T10:26:47.091Z,14.20
2023-03-21T10:29:17.278Z,14.20
2023-03-21T10:31:46.925Z,14.20
2023-03-21T10:34:19.031Z,14.20
2023-03-21T10:36:46.939Z,14.20
2023-03-21T10:39:27.631Z,14.20
2023-03-21T10:41:55.603Z,14.30
2023-03-21T10:44:30.853Z,14.30
2023-03-21T10:47:01.465Z,14.40
2023-03-21T10:49:40.186Z,14.40
2023-03-21T10:52:11.243Z,14.50
2023-03-21T10:54:38.682Z,14.50
2023-03-21T10:57:09.634Z,14.40
2023-03-21T10:59:41.060Z,14.30
2023-03-21T11:02:19.741Z,14.30
2023-03-21T11:04:48.431Z,14.30
2023-03-21T11:07:16.121Z,14.30
2023-03-21T11:09:47.280Z,14.30
2023-03-21T11:12:17.983Z,14.30
2023-03-21T11:14:48.364Z,14.30
2023-03-21T11:17:21.824Z,14.40
2023-03-21T11:19:52.451Z,14.40
2023-03-21T11:22:23.456Z,14.50
2023-03-21T11:24:54.559Z,14.50
2023-03-21T11:27:21.957Z,14.50
2023-03-21T11:29:52.235Z,14.50
2023-03-21T11:32:25.233Z,14.50
2023-03-21T11:34:59.636Z,14.50
2023-03-21T11:37:32.885Z,14.40
2023-03-21T11:40:04.667Z,14.30
2023-03-21T11:42:39.779Z,14.30
2023-03-21T11:45:14.218Z,14.40
2023-03-21T11:47:41.686Z,14.50
2023-03-21T11:50:16.740Z,14.50
2023-03-21T11:52:49.991Z,14.50
2023-03-21T11:55:26.865Z,14.50
2023-03-21T11:58:13.980Z,14.40
2023-03-21T12:00:47.135Z,14.40
2023-03-21T12:03:48.755Z,14.40
2023-03-21T12:06:25.310Z,14.50
2023-03-21T12:09:02.345Z,14.40
2023-03-21T12:11:40.105Z,14.40
2023-03-21T12:14:16.718Z,14.50
2023-03-21T12:16:53.880Z,14.60
2023-03-21T12:19:45.724Z,14.60
2023-03-21T12:22:21.151Z,14.60
2023-03-21T12:24:55.406Z,14.70
2023-03-21T12:27:32.483Z,14.60
2023-03-21T12:30:24.373Z,14.70
2023-03-21T12:32:55.143Z,14.70
2023-03-21T12:35:29.921Z,14.70
2023-03-21T12:38:04.136Z,14.70
2023-03-21T12:40:44.591Z,14.60
2023-03-21T12:43:15.011Z,14.70
2023-03-21T12:45:47.647Z,14.80
2023-03-21T12:48:21.333Z,14.70
2023-03-21T12:50:53.939Z,14.70
2023-03-21T12:53:43.320Z,14.70
2023-03-21T12:56:15.712Z,14.80
2023-03-21T12:58:48.431Z,14.80
2023-03-21T13:01:18.145Z,14.80
2023-03-21T13:03:52.430Z,14.70
2023-03-21T13:06:24.241Z,14.60
2023-03-21T13:08:58.300Z,14.50
2023-03-21T13:11:29.300Z,14.50
2023-03-21T13:14:00.573Z,14.50
2023-03-21T13:16:35.712Z,14.50
2023-03-21T13:19:27.848Z,14.50
2023-03-21T13:21:59.699Z,14.50
2023-03-21T13:24:29.595Z,14.50
2023-03-21T13:27:01.157Z,14.60
2023-03-21T13:29:33.526Z,14.60
2023-03-21T13:32:10.292Z,14.80
2023-03-21T13:34:40.618Z,15.20
2023-03-21T13:37:16.816Z,15.30
2023-03-21T13:39:47.380Z,15.40
2023-03-21T13:42:20.872Z,15.50
2023-03-21T13:44:54.258Z,15.40
2023-03-21T13:47:39.780Z,15.30
2023-03-21T13:50:10.110Z,15.20
2023-03-21T13:52:37.329Z,15.10
2023-03-21T13:55:14.956Z,15.00
2023-03-21T13:57:42.339Z,15.10
2023-03-21T14:00:13.965Z,15.10
2023-03-21T14:02:54.530Z,15.20
2023-03-21T14:05:24.965Z,15.20
2023-03-21T14:08:06.114Z,15.20
2023-03-21T14:10:43.632Z,15.20
2023-03-21T14:13:16.476Z,15.20
2023-03-21T14:15:55.370Z,15.10
2023-03-21T14:18:34.952Z,15.20
2023-03-21T14:21:23.797Z,15.30
2023-03-21T14:23:56.215Z,15.50
2023-03-21T14:26:25.539Z,15.60
2023-03-21T14:28:53.594Z,15.70
2023-03-21T14:31:21.890Z,15.80
2023-03-21T14:33:54.229Z,15.80
2023-03-21T14:36:25.865Z,15.90
2023-03-21T14:38:58.294Z,16.00
2023-03-21T14:41:28.265Z,16.10
2023-03-21T14:43:58.525Z,16.10
2023-03-21T14:46:26.984Z,16.20
2023-03-21T14:48:54.248Z,16.20
2023-03-21T14:51:23.565Z,16.00
2023-03-21T14:53:50.868Z,15.90
2023-03-21T14:56:23.850Z,15.80
2023-03-21T14:58:53.584Z,15.80
2023-03-21T15:01:29.161Z,15.70
2023-03-21T15:04:00.355Z,15.70
2023-03-21T15:06:27.723Z,15.70
2023-03-21T15:08:58.395Z,15.60
2023-03-21T15:11:28.687Z,15.60
2023-03-21T15:13:56.593Z,15.60
2023-03-21T15:16:24.192Z,15.70
2023-03-21T15:18:52.475Z,15.80
2023-03-21T15:21:27.982Z,15.80
2023-03-21T15:24:00.665Z,15.80
2023-03-21T15:26:31.746Z,15.80
2023-03-21T15:29:00.415Z,15.80
2023-03-21T15:31:31.122Z,15.80
2023-03-21T15:33:58.615Z,15.90
2023-03-21T15:36:29.064Z,15.80
2023-03-21T15:38:56.904Z,15.70
2023-03-21T15:41:29.264Z,15.80
2023-03-21T15:44:01.755Z,15.70
2023-03-21T15:46:32.450Z,15.60
2023-03-21T15:49:02.761Z,15.60
2023-03-21T15:51:32.184Z,15.60
2023-03-21T15:54:00.681Z,15.70
2023-03-21T15:56:34.809Z,15.80
2023-03-21T15:59:03.866Z,15.90
2023-03-21T16:01:38.972Z,16.00
2023-03-21T16:04:10.083Z,16.00
2023-03-21T16:06:39.674Z,16.00
2023-03-21T16:09:14.570Z,16.00
2023-03-21T16:11:44.051Z,16.10
2023-03-21T16:14:11.284Z,16.10
2023-03-21T16:16:38.574Z,16.10
2023-03-21T16:19:07.293Z,16.20
2023-03-21T16:21:38.223Z,16.20
2023-03-21T16:24:08.749Z,16.20
2023-03-21T16:26:43.080Z,16.10
2023-03-21T16:29:13.523Z,16.10
2023-03-21T16:31:40.934Z,16.10
2023-03-21T16:34:08.325Z,16.00
2023-03-21T16:36:38.301Z,16.00
2023-03-21T16:39:14.301Z,16.00
2023-03-21T16:41:41.551Z,15.90
2023-03-21T16:44:08.852Z,15.80
2023-03-21T16:46:36.512Z,15.80
2023-03-21T16:49:03.968Z,15.80
2023-03-21T16:51:34.175Z,15.80
2023-03-21T16:54:01.909Z,15.90
2023-03-21T16:56:34.047Z,15.90
2023-03-21T16:59:01.240Z,15.90
2023-03-21T17:01:30.193Z,15.80
2023-03-21T17:03:58.162Z,15.70
2023-03-21T17:06:27.878Z,15.60
2023-03-21T17:08:58.789Z,15.60
2023-03-21T17:11:31.565Z,15.50
2023-03-21T17:13:58.863Z,15.40
2023-03-21T17:16:27.044Z,15.40
2023-03-21T17:18:55.329Z,15.30
2023-03-21T17:21:25.449Z,15.30
2023-03-21T17:23:53.667Z,15.20
2023-03-21T17:26:24.491Z,15.10
2023-03-21T17:28:54.826Z,15.10
2023-03-21T17:31:24.623Z,15.00
2023-03-21T17:33:54.381Z,15.00
2023-03-21T17:36:31.355Z,15.00
2023-03-21T17:38:59.023Z,14.90
2023-03-21T17:41:26.691Z,14.90
2023-03-21T17:43:56.064Z,14.90
2023-03-21T17:46:25.820Z,14.80
2023-03-21T17:48:53.639Z,14.90
2023-03-21T17:51:23.065Z,14.80
2023-03-21T17:53:51.189Z,14.80
2023-03-21T17:56:23.033Z,14.70
2023-03-21T17:58:50.210Z,14.60
2023-03-21T18:01:17.432Z,14.60
2023-03-21T18:03:44.780Z,14.60
2023-03-21T18:06:16.405Z,14.60
2023-03-21T18:08:44.819Z,14.50
2023-03-21T18:11:13.062Z,14.40
2023-03-21T18:13:42.281Z,14.40
2023-03-21T18:16:14.803Z,14.40
2023-03-21T18:18:42.812Z,14.30
2023-03-21T18:21:10.941Z,14.30
2023-03-21T18:23:39.630Z,14.20
2023-03-21T18:26:08.571Z,14.20
2023-03-21T18:28:39.556Z,14.20
2023-03-21T18:31:15.769Z,14.20
2023-03-21T18:33:47.252Z,14.20
2023-03-21T18:36:24.474Z,14.10
2023-03-21T18:38:52.871Z,14.10
2023-03-21T18:41:21.206Z,14.00
2023-03-21T18:44:15.031Z,13.80
2023-03-21T18:46:37.162Z,13.80
2023-03-21T18:49:42.090Z,13.70
2023-03-21T18:51:52.749Z,13.70
2023-03-21T18:54:20.652Z,13.60
2023-03-21T18:57:34.521Z,13.60
2023-03-21T18:59:39.516Z,13.60
2023-03-21T19:02:07.630Z,13.60
2023-03-21T19:04:37.523Z,13.40
2023-03-21T19:07:05.229Z,13.30
2023-03-21T19:09:52.252Z,13.20
2023-03-21T19:12:21.275Z,13.10
2023-03-21T19:14:48.465Z,13.10
2023-03-21T19:18:07.813Z,13.10
2023-03-21T19:20:04.421Z,13.10
2023-03-21T19:22:31.845Z,13.10
2023-03-21T19:24:59.144Z,13.10
2023-03-21T19:27:27.181Z,13.00
2023-03-21T19:30:10.868Z,12.90
2023-03-21T19:32:41.363Z,12.90
2023-03-21T19:35:09.479Z,12.90
2023-03-21T19:37:36.816Z,12.70
2023-03-21T19:40:06.954Z,12.70
2023-03-21T19:42:36.398Z,12.70
2023-03-21T19:45:05.457Z,12.70
2023-03-21T19:47:32.965Z,12.70
2023-03-21T19:52:47.688Z,12.70
2023-03-21T19:55:15.113Z,12.60
2023-03-21T19:57:42.479Z,12.50
2023-03-21T20:00:11.682Z,12.50
2023-03-21T20:02:39.656Z,12.50
2023-03-21T20:05:07.905Z,12.50
2023-03-21T20:07:35.588Z,12.50
2023-03-21T20:10:02.849Z,12.50
2023-03-21T20:12:32.171Z,12.40
2023-03-21T20:15:12.198Z,12.30
2023-03-21T20:17:44.008Z,12.30
2023-03-21T20:20:15.385Z,12.30
2023-03-21T20:23:05.745Z,12.20
2023-03-21T20:25:32.828Z,12.20
2023-03-21T20:28:15.184Z,12.20
2023-03-21T20:30:47.036Z,12.20
2023-03-21T20:33:14.229Z,12.20
2023-03-21T20:38:31.096Z,12.10
2023-03-21T20:40:59.149Z,12.10
2023-03-21T20:44:14.326Z,12.20
2023-03-21T20:46:16.295Z,12.10
2023-03-21T20:48:43.461Z,12.00
2023-03-21T20:53:59.726Z,11.70
2023-03-21T20:56:27.121Z,11.60
2023-03-21T20:59:11.800Z,11.50
2023-03-21T21:01:43.336Z,11.50
2023-03-21T21:04:11.669Z,11.40
2023-03-21T21:06:39.312Z,11.30
2023-03-21T21:09:06.679Z,11.30
2023-03-21T21:14:21.082Z,11.30
2023-03-21T21:16:48.340Z,11.20
2023-03-21T21:19:21.867Z,11.30
2023-03-21T21:21:49.999Z,11.30
2023-03-21T21:24:17.123Z,11.40
2023-03-21T21:26:46.557Z,11.40
2023-03-21T21:29:16.821Z,11.30
2023-03-21T21:31:46.978Z,11.30
2023-03-21T21:34:15.787Z,11.30
2023-03-21T21:39:09.413Z,11.20
2023-03-21T21:41:36.730Z,11.10
2023-03-21T21:44:03.870Z,11.10
2023-03-21T21:46:31.851Z,11.10
2023-03-21T21:48:59.817Z,11.10
2023-03-21T21:51:27.507Z,11.00
2023-03-21T21:53:56.073Z,10.90
2023-03-21T21:56:24.455Z,10.90
2023-03-21T21:58:53.353Z,10.90
2023-03-21T22:01:21.256Z,10.80
2023-03-21T22:03:48.914Z,10.80
2023-03-21T22:06:16.134Z,10.80
2023-03-21T22:08:46.939Z,10.80
2023-03-21T22:11:16.058Z,10.70
2023-03-21T22:13:43.664Z,10.70
2023-03-21T22:16:11.866Z,10.60
2023-03-21T22:18:39.303Z,10.60
2023-03-21T22:21:07.170Z,10.50
2023-03-21T22:23:34.582Z,10.50
2023-03-21T22:26:02.172Z,10.50
2023-03-21T22:28:29.308Z,10.60
2023-03-21T22:30:56.617Z,10.60
2023-03-21T22:33:24.069Z,10.60
2023-03-21T22:35:52.795Z,10.50
2023-03-21T22:38:24.581Z,10.50
2023-03-21T22:40:57.489Z,10.50
2023-03-21T22:43:24.868Z,10.60
2023-03-21T22:45:52.763Z,10.50
2023-03-21T22:48:21.175Z,10.60
2023-03-21T22:50:48.583Z,10.60
2023-03-21T22:53:15.992Z,10.60
2023-03-21T22:55:43.210Z,10.60
2023-03-21T22:58:10.393Z,10.60
2023-03-21T23:00:38.338Z,10.50
2023-03-21T23:03:06.058Z,10.50
2023-03-21T23:05:33.305Z,10.50
2023-03-21T23:08:00.594Z,10.40
2023-03-21T23:10:27.798Z,10.40
2023-03-21T23:12:55.157Z,10.40
2023-03-21T23:15:22.433Z,10.40
2023-03-21T23:17:49.750Z,10.50
2023-03-21T23:20:17.030Z,10.50
2023-03-21T23:22:44.353Z,10.40
2023-03-21T23:25:12.035Z,10.40
2023-03-21T23:27:39.392Z,10.40
2023-03-21T23:30:07.820Z,10.40
2023-03-21T23:32:35.429Z,10.40
2023-03-21T23:35:02.556Z,10.30
2023-03-21T23:37:33.031Z,10.30
2023-03-21T23:40:00.229Z,10.30
2023-03-21T23:42:30.496Z,10.30
2023-03-21T23:44:58.048Z,10.20
2023-03-21T23:47:25.243Z,10.20
2023-03-21T23:49:52.933Z,10.20
2023-03-21T23:52:20.109Z,10.30
2023-03-21T23:54:47.316Z,10.30
2023-03-21T23:57:14.493Z,10.40
2023-03-21T23:59:41.844Z,10.50
